createdAt,value
2019-01-18T00:00:46.863Z,13.9
2019-01-18T00:01:37.485Z,13.9
2019-01-18T00:02:26.144Z,13.9
2019-01-18T00:03:32.593Z,13.9
2019-01-18T00:04:07.633Z,13.9
2019-01-18T00:04:57.420Z,13.9
2019-01-18T00:05:47.466Z,13.9
2019-01-18T00:06:37.831Z,13.9
2019-01-18T00:07:27.861Z,13.9
2019-01-18T00:08:17.683Z,13.9
2019-01-18T00:09:07.428Z,13.9
2019-01-18T00:09:57.756Z,13.9
2019-01-18T00:10:47.258Z,13.9
2019-01-18T00:11:37.598Z,13.9
2019-01-18T00:12:28.218Z,13.9
2019-01-18T00:13:17.984Z,13.9
2019-01-18T00:14:08.327Z,13.9
2019-01-18T00:14:58.650Z,13.9
2019-01-18T00:15:48.744Z,13.9
2019-01-18T00:16:37.391Z,13.9
2019-01-18T00:17:28.555Z,13.9
2019-01-18T00:18:18.052Z,13.9
2019-01-18T00:19:08.120Z,13.9
2019-01-18T00:19:59.043Z,13.9
2019-01-18T00:20:47.960Z,13.9
2019-01-18T00:21:38.317Z,13.8
2019-01-18T00:22:28.897Z,13.9
2019-01-18T00:23:19.231Z,13.9
2019-01-18T00:24:09.285Z,13.9
2019-01-18T00:24:59.072Z,13.9
2019-01-18T00:25:48.567Z,13.9
2019-01-18T00:26:39.477Z,13.9
2019-01-18T00:27:29.236Z,13.9
2019-01-18T00:28:19.652Z,13.9
2019-01-18T00:29:09.362Z,13.9
2019-01-18T00:29:59.410Z,13.9
2019-01-18T00:30:49.200Z,13.9
2019-01-18T00:31:38.967Z,13.8
2019-01-18T00:32:29.024Z,13.9
2019-01-18T00:33:19.656Z,13.9
2019-01-18T00:34:09.687Z,13.8
2019-01-18T00:34:59.777Z,13.9
2019-01-18T00:35:49.833Z,13.9
2019-01-18T00:36:39.594Z,13.9
2019-01-18T00:37:29.934Z,13.9
2019-01-18T00:38:19.449Z,13.8
2019-01-18T00:39:10.070Z,13.9
2019-01-18T00:39:59.821Z,13.9
2019-01-18T00:40:49.879Z,13.8
2019-01-18T03:08:42.608Z,13.7
2019-01-18T03:09:31.357Z,13.7
2019-01-18T03:10:22.992Z,13.7
2019-01-18T03:11:13.127Z,13.7
2019-01-18T03:12:02.367Z,13.7
2019-01-18T03:12:53.169Z,13.7
2019-01-18T03:13:42.994Z,13.7
2019-01-18T03:14:33.535Z,13.7
2019-01-18T03:15:23.135Z,13.7
2019-01-18T03:16:12.339Z,13.7
2019-01-18T03:17:02.374Z,13.7
2019-01-18T03:17:53.044Z,13.7
2019-01-18T03:18:43.130Z,13.7
2019-01-18T03:19:33.970Z,13.7
2019-01-18T03:20:23.454Z,13.7
2019-01-18T03:21:13.451Z,13.7
2019-01-18T03:22:17.923Z,13.7
2019-01-18T03:22:53.428Z,13.7
2019-01-18T03:23:43.638Z,13.7
2019-01-18T03:24:33.531Z,13.7
2019-01-18T03:25:23.319Z,13.7
2019-01-18T03:26:13.317Z,13.7
2019-01-18T03:27:03.635Z,13.7
2019-01-18T03:27:53.713Z,13.7
2019-01-18T03:28:43.476Z,13.7
2019-01-18T03:29:34.085Z,13.7
2019-01-18T03:30:25.063Z,13.7
2019-01-18T03:31:14.044Z,13.7
2019-01-18T03:32:04.329Z,13.7
2019-01-18T03:32:54.541Z,13.7
2019-01-18T03:33:43.854Z,13.7
2019-01-18T03:34:34.431Z,13.7
2019-01-18T03:35:24.468Z,13.7
2019-01-18T03:36:14.288Z,13.7
2019-01-18T03:37:04.650Z,13.7
2019-01-18T03:37:54.690Z,13.7
2019-01-18T03:38:44.734Z,13.7
2019-01-18T03:39:34.783Z,13.7
2019-01-18T03:40:24.573Z,13.6
2019-01-18T03:41:13.883Z,13.6
2019-01-18T03:42:04.188Z,13.6
2019-01-18T03:42:54.572Z,13.7
2019-01-18T03:43:44.359Z,13.6
2019-01-18T03:44:34.070Z,13.7
2019-01-18T03:45:24.092Z,13.7
2019-01-18T03:46:15.239Z,13.6
2019-01-18T03:47:05.307Z,13.6
2019-01-18T03:47:54.790Z,13.7
2019-01-18T03:48:44.272Z,13.7
2019-01-18T03:49:35.720Z,13.7
2019-01-18T03:50:25.483Z,13.7
2019-01-18T03:51:15.494Z,13.7
2019-01-18T03:52:05.552Z,13.7
2019-01-18T03:52:55.915Z,13.7
2019-01-18T03:53:45.917Z,13.6
2019-01-18T03:54:35.569Z,13.7
2019-01-18T03:55:25.556Z,13.7
2019-01-18T03:56:15.852Z,13.7
2019-01-18T03:57:05.913Z,13.6
2019-01-18T03:57:55.938Z,13.6
2019-01-18T03:58:46.296Z,13.7
2019-01-18T03:59:36.138Z,13.7
2019-01-18T04:00:30.275Z,13.6
2019-01-18T04:01:16.454Z,13.6
2019-01-18T04:02:06.008Z,13.6
2019-01-18T04:02:56.650Z,13.6
2019-01-18T04:03:46.146Z,13.6
2019-01-18T04:04:36.478Z,13.6
2019-01-18T04:05:26.776Z,13.6
2019-01-18T04:06:17.098Z,13.6
2019-01-18T04:07:07.146Z,13.6
2019-01-18T04:07:56.643Z,13.6
2019-01-18T04:08:47.048Z,13.6
2019-01-18T04:09:37.293Z,13.6
2019-01-18T04:10:26.551Z,13.6
2019-01-18T04:11:16.860Z,13.6
2019-01-18T04:12:06.915Z,13.6
2019-01-18T04:12:56.714Z,13.6
2019-01-18T04:13:46.831Z,13.6
2019-01-18T04:14:36.593Z,13.6
2019-01-18T04:15:26.466Z,13.6
2019-01-18T04:16:16.725Z,13.6
2019-01-18T04:17:07.073Z,13.6
2019-01-18T04:17:56.936Z,13.6
2019-01-18T04:18:47.466Z,13.6
2019-01-18T04:19:37.407Z,13.6
2019-01-18T04:20:27.758Z,13.6
2019-01-18T04:21:17.830Z,13.6
2019-01-18T04:22:08.180Z,13.6
2019-01-18T04:22:57.977Z,13.6
2019-01-18T04:23:47.802Z,13.6
2019-01-18T04:24:38.050Z,13.6
2019-01-18T04:25:28.445Z,13.6
2019-01-18T04:26:18.426Z,13.6
2019-01-18T04:27:08.470Z,13.6
2019-01-18T04:27:58.285Z,13.6
2019-01-18T04:28:48.642Z,13.6
2019-01-18T04:29:37.829Z,13.6
2019-01-18T04:30:36.792Z,13.6
2019-01-18T04:31:18.790Z,13.6
2019-01-18T04:32:08.538Z,13.6
2019-01-18T04:32:58.647Z,13.6
2019-01-18T04:33:48.689Z,13.6
2019-01-18T04:34:38.715Z,13.6
2019-01-18T04:35:29.058Z,13.6
2019-01-18T04:36:18.861Z,13.6
2019-01-18T04:37:09.184Z,13.6
2019-01-18T04:37:59.006Z,13.6
2019-01-18T04:38:49.039Z,13.6
2019-01-18T04:39:38.796Z,13.6
2019-01-18T04:40:29.431Z,13.6
2019-01-18T04:41:19.204Z,13.6
2019-01-18T04:42:08.963Z,13.6
2019-01-18T04:42:59.033Z,13.6
2019-01-18T04:43:49.641Z,13.6
2019-01-18T04:44:39.717Z,13.6
2019-01-18T04:45:28.909Z,13.6
2019-01-18T04:46:19.244Z,13.6
2019-01-18T04:47:09.045Z,13.6
2019-01-18T04:47:59.622Z,13.6
2019-01-18T04:48:49.134Z,13.6
2019-01-18T04:49:39.236Z,13.6
2019-01-18T04:50:29.813Z,13.6
2019-01-18T04:51:19.841Z,13.6
2019-01-18T04:52:09.633Z,13.6
2019-01-18T04:52:59.710Z,13.6
2019-01-18T04:53:49.744Z,13.6
2019-01-18T04:54:39.523Z,13.6
2019-01-18T04:55:44.797Z,13.6
2019-01-18T04:56:19.630Z,13.6
2019-01-18T04:57:10.505Z,13.6
2019-01-18T04:57:59.757Z,13.6
2019-01-18T04:58:49.810Z,13.6
2019-01-18T04:59:40.416Z,13.6
2019-01-18T05:00:30.788Z,13.6
2019-01-18T05:01:20.822Z,13.6
2019-01-18T05:02:10.310Z,13.6
2019-01-18T05:03:00.935Z,13.6
2019-01-18T05:03:51.000Z,13.6
2019-01-18T05:04:40.802Z,13.6
2019-01-18T05:05:30.299Z,13.6
2019-01-18T05:06:20.044Z,13.6
2019-01-18T05:07:10.649Z,13.6
2019-01-18T05:08:00.718Z,13.6
2019-01-18T05:08:50.789Z,13.6
2019-01-18T05:09:40.822Z,13.6
2019-01-18T05:10:30.882Z,13.6
2019-01-18T05:11:21.475Z,13.6
2019-01-18T05:12:10.987Z,13.6
2019-01-18T05:13:01.599Z,13.6
2019-01-18T05:13:51.437Z,13.6
2019-01-18T05:14:41.158Z,13.6
2019-01-18T05:15:31.000Z,13.6
2019-01-18T05:16:21.834Z,13.6
2019-01-18T05:17:11.599Z,13.6
2019-01-18T05:18:01.743Z,13.6
2019-01-18T05:18:51.742Z,13.6
2019-01-18T05:19:43.558Z,13.6
2019-01-18T05:20:31.871Z,13.6
2019-01-18T05:21:21.634Z,13.6
2019-01-18T05:22:11.644Z,13.6
2019-01-18T05:23:02.016Z,13.6
2019-01-18T05:23:51.778Z,13.6
2019-01-18T05:24:49.054Z,13.6
2019-01-18T05:25:32.191Z,13.6
2019-01-18T05:26:21.954Z,13.6
2019-01-18T05:27:12.021Z,13.6
2019-01-18T05:28:01.526Z,13.6
2019-01-18T05:28:52.680Z,13.6
2019-01-18T05:29:41.398Z,13.6
2019-01-18T05:30:32.521Z,13.6
2019-01-18T05:31:22.543Z,13.6
2019-01-18T05:32:11.876Z,13.6
2019-01-18T05:33:02.505Z,13.6
2019-01-18T05:33:52.518Z,13.6
2019-01-18T05:34:42.331Z,13.6
2019-01-18T05:35:32.669Z,13.6
2019-01-18T05:36:22.728Z,13.6
2019-01-18T05:37:12.480Z,13.6
2019-01-18T05:38:02.531Z,13.6
2019-01-18T05:38:52.599Z,13.6
2019-01-18T05:39:42.920Z,13.6
2019-01-18T05:40:32.413Z,13.6
2019-01-18T05:41:22.758Z,13.6
2019-01-18T05:42:13.277Z,13.6
2019-01-18T05:43:03.371Z,13.6
2019-01-18T05:43:52.906Z,13.6
2019-01-18T05:44:43.953Z,13.6
2019-01-18T05:45:33.297Z,13.6
2019-01-18T05:46:22.863Z,13.5
2019-01-18T05:47:13.145Z,13.6
2019-01-18T05:48:03.129Z,13.6
2019-01-18T05:48:54.025Z,13.6
2019-01-18T05:49:43.832Z,13.5
2019-01-18T05:50:32.812Z,13.5
2019-01-18T05:51:23.677Z,13.6
2019-01-18T05:52:14.033Z,13.5
2019-01-18T05:53:04.022Z,13.6
2019-01-18T05:53:54.579Z,13.5
2019-01-18T05:54:44.137Z,13.5
2019-01-18T05:55:34.470Z,13.6
2019-01-18T05:56:24.236Z,13.6
2019-01-18T05:57:14.350Z,13.5
2019-01-18T05:58:03.806Z,13.5
2019-01-18T05:58:54.119Z,13.5
2019-01-18T05:59:44.195Z,13.5
2019-01-18T06:00:34.536Z,13.5
2019-01-18T06:01:25.627Z,13.6
2019-01-18T06:02:14.351Z,13.5
2019-01-18T06:03:04.971Z,13.5
2019-01-18T06:03:54.791Z,13.5
2019-01-18T06:04:44.791Z,13.5
2019-01-18T06:06:43.036Z,13.5
2019-01-18T06:07:32.838Z,13.5
2019-01-18T06:08:23.228Z,13.5
2019-01-18T06:09:12.953Z,13.6
2019-01-18T06:10:03.266Z,13.5
2019-01-18T06:10:53.309Z,13.5
2019-01-18T06:11:43.348Z,13.5
2019-01-18T06:12:33.203Z,13.6
2019-01-18T06:13:23.501Z,13.5
2019-01-18T06:14:12.975Z,13.5
2019-01-18T06:15:03.120Z,13.5
2019-01-18T06:15:53.435Z,13.5
2019-01-18T06:16:43.718Z,13.5
2019-01-18T06:17:33.778Z,13.5
2019-01-18T06:18:23.263Z,13.5
2019-01-18T06:19:13.867Z,13.5
2019-01-18T06:20:03.814Z,13.5
2019-01-18T06:20:53.957Z,13.5
2019-01-18T06:21:44.030Z,13.5
2019-01-18T06:22:34.105Z,13.5
2019-01-18T06:23:24.218Z,13.5
2019-01-18T06:24:13.378Z,13.5
2019-01-18T06:25:04.124Z,13.5
2019-01-18T06:25:54.064Z,13.5
2019-01-18T06:26:44.382Z,13.5
2019-01-18T06:27:33.948Z,13.5
2019-01-18T06:28:23.945Z,13.5
2019-01-18T06:29:14.515Z,13.5
2019-01-18T06:30:04.640Z,13.5
2019-01-18T06:30:54.661Z,13.5
2019-01-18T06:31:44.710Z,13.5
2019-01-18T06:32:34.464Z,13.5
2019-01-18T06:33:24.867Z,13.5
2019-01-18T06:34:14.651Z,13.5
2019-01-18T06:35:04.987Z,13.5
2019-01-18T06:35:54.473Z,13.5
2019-01-18T06:36:44.086Z,13.5
2019-01-18T06:37:34.606Z,13.5
2019-01-18T06:38:25.144Z,13.5
2019-01-18T06:39:15.216Z,13.5
2019-01-18T06:40:05.266Z,13.5
2019-01-18T06:40:55.314Z,13.5
2019-01-18T06:41:45.374Z,13.5
2019-01-18T06:42:34.896Z,13.5
2019-01-18T06:43:25.488Z,13.5
2019-01-18T06:44:15.556Z,13.5
2019-01-18T06:45:05.336Z,13.5
2019-01-18T06:45:55.658Z,13.5
2019-01-18T06:46:44.704Z,13.5
2019-01-18T06:47:35.511Z,13.5
2019-01-18T06:48:25.855Z,13.5
2019-01-18T06:49:15.606Z,13.5
2019-01-18T06:50:05.401Z,13.5
2019-01-18T06:50:55.983Z,13.4
2019-01-18T06:51:45.785Z,13.5
2019-01-18T06:52:35.879Z,13.5
2019-01-18T06:53:26.157Z,13.4
2019-01-18T06:54:16.213Z,13.5
2019-01-18T06:55:05.741Z,13.4
2019-01-18T06:55:56.333Z,13.4
2019-01-18T06:56:46.123Z,13.4
2019-01-18T06:57:36.175Z,13.5
2019-01-18T06:58:26.230Z,13.4
2019-01-18T06:59:16.320Z,13.4
2019-01-18T07:00:06.433Z,13.4
2019-01-18T07:00:56.685Z,13.4
2019-01-18T07:01:46.170Z,13.3
2019-01-18T07:02:36.247Z,13.3
2019-01-18T07:03:26.562Z,13.3
2019-01-18T07:04:16.673Z,13.3
2019-01-18T07:06:42.422Z,13.3
2019-01-18T07:07:32.447Z,13.3
2019-01-18T07:08:22.529Z,13.2
2019-01-18T07:09:12.850Z,13.3
2019-01-18T07:10:02.922Z,13.3
2019-01-18T07:10:52.682Z,13.3
2019-01-18T07:11:42.740Z,13.3
2019-01-18T07:12:33.069Z,13.3
2019-01-18T07:13:23.137Z,13.3
2019-01-18T07:14:13.187Z,13.3
2019-01-18T07:15:03.375Z,13.3
2019-01-18T07:15:53.561Z,13.3
2019-01-18T07:16:43.076Z,13.3
2019-01-18T07:17:32.869Z,13.3
2019-01-18T07:18:24.801Z,13.3
2019-01-18T07:19:13.514Z,13.3
2019-01-18T07:20:03.854Z,13.3
2019-01-18T07:20:53.364Z,13.3
2019-01-18T07:21:43.984Z,13.3
2019-01-18T07:22:33.463Z,13.3
2019-01-18T07:23:23.799Z,13.3
2019-01-18T07:24:14.181Z,13.3
2019-01-18T07:25:03.949Z,13.3
2019-01-18T07:25:53.729Z,13.3
2019-01-18T07:26:44.051Z,13.3
2019-01-18T07:27:33.938Z,13.3
2019-01-18T07:28:24.166Z,13.3
2019-01-18T07:29:14.505Z,13.3
2019-01-18T07:30:04.566Z,13.3
2019-01-18T07:30:54.026Z,13.3
2019-01-18T07:31:44.113Z,13.2
2019-01-18T07:32:34.181Z,13.3
2019-01-18T07:33:24.501Z,13.2
2019-01-18T07:34:14.826Z,13.3
2019-01-18T07:35:04.900Z,13.3
2019-01-18T07:35:54.923Z,13.3
2019-01-18T07:36:44.729Z,13.3
2019-01-18T07:37:34.562Z,13.2
2019-01-18T07:38:24.263Z,13.3
2019-01-18T07:39:14.325Z,13.3
2019-01-18T07:40:05.238Z,13.3
2019-01-18T07:40:54.730Z,13.2
2019-01-18T07:41:45.095Z,13.3
2019-01-18T07:42:35.419Z,13.2
2019-01-18T07:43:25.465Z,13.3
2019-01-18T07:44:15.296Z,13.2
2019-01-18T07:45:05.609Z,13.2
2019-01-18T07:45:54.812Z,13.3
2019-01-18T07:46:45.472Z,13.3
2019-01-18T07:47:35.197Z,13.3
2019-01-18T07:48:25.538Z,13.3
2019-01-18T07:49:15.599Z,13.3
2019-01-18T07:50:05.134Z,13.3
2019-01-18T07:50:55.137Z,13.3
2019-01-18T07:51:45.799Z,13.2
2019-01-18T07:52:35.807Z,13.3
2019-01-18T07:53:26.149Z,13.3
2019-01-18T07:54:15.639Z,13.2
2019-01-18T07:55:05.146Z,13.2
2019-01-18T07:55:55.751Z,13.2
2019-01-18T07:56:46.366Z,13.3
2019-01-18T07:57:35.894Z,13.2
2019-01-18T07:58:25.652Z,13.3
2019-01-18T07:59:16.244Z,13.2
2019-01-18T08:00:06.626Z,13.2
2019-01-18T08:00:58.064Z,13.3
2019-01-18T08:01:46.166Z,13.2
2019-01-18T08:02:36.499Z,13.2
2019-01-18T08:03:26.297Z,13.2
2019-01-18T08:04:16.351Z,13.2
2019-01-18T08:05:06.421Z,13.3
2019-01-18T08:05:56.170Z,13.2
2019-01-18T08:06:46.501Z,13.2
2019-01-18T08:07:36.835Z,13.2
2019-01-18T08:08:26.894Z,13.2
2019-01-18T08:09:17.256Z,13.2
2019-01-18T08:10:06.718Z,13.2
2019-01-18T08:10:57.372Z,13.2
2019-01-18T08:11:46.896Z,13.2
2019-01-18T08:12:36.896Z,13.2
2019-01-18T08:13:27.235Z,13.3
2019-01-18T08:14:17.303Z,13.2
2019-01-18T08:15:07.630Z,13.2
2019-01-18T08:15:57.688Z,13.2
2019-01-18T08:16:47.438Z,13.2
2019-01-18T08:17:37.805Z,13.2
2019-01-18T08:18:27.290Z,13.2
2019-01-18T08:19:17.630Z,13.2
2019-01-18T08:20:07.965Z,13.2
2019-01-18T08:20:57.751Z,13.2
2019-01-18T08:21:48.083Z,13.2
2019-01-18T08:22:37.590Z,13.2
2019-01-18T08:23:27.631Z,13.2
2019-01-18T08:24:18.244Z,13.2
2019-01-18T08:25:07.770Z,13.2
2019-01-18T08:25:57.805Z,13.2
2019-01-18T08:26:48.192Z,13.2
2019-01-18T08:27:38.204Z,13.2
2019-01-18T08:28:28.532Z,13.2
2019-01-18T08:29:18.332Z,13.2
2019-01-18T08:30:08.387Z,13.2
2019-01-18T08:30:58.427Z,13.2
2019-01-18T08:31:48.484Z,13.2
2019-01-18T08:32:38.565Z,13.2
2019-01-18T08:33:28.330Z,13.2
2019-01-18T08:34:18.179Z,13.2
2019-01-18T08:35:08.995Z,13.2
2019-01-18T08:35:58.572Z,13.2
2019-01-18T08:36:48.549Z,13.2
2019-01-18T08:37:38.884Z,13.2
2019-01-18T08:38:28.700Z,13.2
2019-01-18T08:39:19.016Z,13.2
2019-01-18T08:40:09.061Z,13.2
2019-01-18T08:40:59.414Z,13.2
2019-01-18T08:41:49.225Z,13.2
2019-01-18T08:42:39.244Z,13.2
2019-01-18T08:43:29.017Z,13.2
2019-01-18T08:44:19.076Z,13.2
2019-01-18T08:45:09.198Z,13.2
2019-01-18T08:45:58.423Z,13.2
2019-01-18T08:46:49.334Z,13.2
2019-01-18T08:47:39.098Z,13.2
2019-01-18T08:48:29.428Z,13.2
2019-01-18T08:49:19.511Z,13.2
2019-01-18T08:50:09.533Z,13.2
2019-01-18T08:50:59.788Z,13.2
2019-01-18T08:51:49.129Z,13.2
2019-01-18T08:52:39.925Z,13.2
2019-01-18T08:53:29.696Z,13.2
2019-01-18T08:54:20.308Z,13.2
2019-01-18T08:55:09.821Z,13.2
2019-01-18T08:56:00.136Z,13.2
2019-01-18T08:56:49.913Z,13.2
2019-01-18T08:57:40.305Z,13.2
2019-01-18T08:58:29.555Z,13.2
2019-01-18T08:59:19.858Z,13.2
2019-01-18T09:00:09.920Z,13.2
2019-01-18T09:00:59.365Z,13.2
2019-01-18T09:01:50.851Z,13.2
2019-01-18T09:02:40.596Z,13.2
2019-01-18T09:03:30.943Z,13.2
2019-01-18T09:04:19.880Z,13.2
2019-01-18T09:05:11.585Z,13.2
2019-01-18T09:06:00.849Z,13.2
2019-01-18T09:06:50.416Z,13.2
2019-01-18T09:07:40.377Z,13.2
2019-01-18T09:08:31.039Z,13.2
2019-01-18T09:09:20.830Z,13.2
2019-01-18T09:10:11.107Z,13.2
2019-01-18T09:11:00.895Z,13.2
2019-01-18T09:11:50.977Z,13.2
2019-01-18T09:12:41.562Z,13.2
2019-01-18T09:13:31.607Z,13.2
2019-01-18T09:14:23.662Z,13.2
2019-01-18T09:15:11.197Z,13.2
2019-01-18T09:16:00.937Z,13.2
2019-01-18T09:16:51.011Z,13.2
2019-01-18T09:17:41.644Z,13.1
2019-01-18T09:18:33.249Z,13.2
2019-01-18T09:19:20.912Z,13.1
2019-01-18T09:20:11.269Z,13.1
2019-01-18T09:21:02.139Z,13.2
2019-01-18T09:21:52.192Z,13.2
2019-01-18T09:22:42.243Z,13.1
2019-01-18T09:23:32.312Z,13.1
2019-01-18T09:24:21.876Z,13.2
2019-01-18T09:25:11.872Z,13.1
2019-01-18T09:26:01.913Z,13.2
2019-01-18T09:26:51.969Z,13.1
2019-01-18T09:27:42.326Z,13.2
2019-01-18T09:28:31.248Z,13.1
2019-01-18T09:29:22.758Z,13.1
2019-01-18T09:30:11.943Z,13.1
2019-01-18T09:31:02.816Z,13.1
2019-01-18T09:31:52.333Z,13.1
2019-01-18T09:32:42.378Z,13.2
2019-01-18T09:33:32.723Z,13.2
2019-01-18T09:34:23.066Z,13.1
2019-01-18T09:35:12.535Z,13.1
2019-01-18T09:36:02.601Z,13.1
2019-01-18T09:36:53.188Z,13.1
2019-01-18T09:37:42.991Z,13.1
2019-01-18T09:38:32.788Z,13.1
2019-01-18T09:39:23.108Z,13.1
2019-01-18T09:40:13.457Z,13.2
2019-01-18T09:41:02.652Z,13.1
2019-01-18T09:41:53.572Z,13.1
2019-01-18T09:42:43.097Z,13.2
2019-01-18T09:43:33.120Z,13.1
2019-01-18T09:44:23.452Z,13.1
2019-01-18T09:45:13.787Z,13.1
2019-01-18T09:46:03.282Z,13.1
2019-01-18T09:46:53.915Z,13.1
2019-01-18T09:47:43.950Z,13.1
2019-01-18T09:48:33.460Z,13.1
2019-01-18T09:49:23.530Z,13.1
2019-01-18T09:50:13.899Z,13.1
2019-01-18T09:51:03.902Z,13.1
2019-01-18T09:51:53.972Z,13.1
2019-01-18T09:52:44.024Z,13.1
2019-01-18T09:53:34.082Z,13.1
2019-01-18T09:54:23.314Z,13.1
2019-01-18T09:55:13.904Z,13.1
2019-01-18T09:56:04.261Z,13.1
2019-01-18T09:56:53.822Z,13.1
2019-01-18T09:57:43.944Z,13.1
2019-01-18T09:58:33.680Z,13.1
2019-01-18T09:59:24.047Z,13.1
2019-01-18T10:00:14.347Z,13.1
2019-01-18T10:01:05.549Z,13.1
2019-01-18T10:01:54.104Z,13.1
2019-01-18T10:02:44.171Z,13.1
2019-01-18T10:03:34.764Z,13.1
2019-01-18T10:04:24.833Z,13.1
2019-01-18T10:05:14.876Z,13.1
2019-01-18T10:07:42.058Z,13.1
2019-01-18T10:08:32.586Z,13.1
2019-01-18T10:09:22.926Z,13.1
2019-01-18T10:10:12.206Z,13.1
2019-01-18T10:11:01.706Z,13.1
2019-01-18T10:11:52.528Z,13.1
2019-01-18T10:12:42.373Z,13.1
2019-01-18T10:13:34.159Z,13.1
2019-01-18T10:14:23.255Z,13.1
2019-01-18T10:15:12.361Z,13.1
2019-01-18T10:16:02.948Z,13.1
2019-01-18T10:16:52.670Z,13.1
2019-01-18T10:17:43.190Z,13.1
2019-01-18T10:18:32.496Z,13.1
2019-01-18T10:19:23.328Z,13.1
2019-01-18T10:20:13.375Z,13.1
2019-01-18T10:21:03.522Z,13.1
2019-01-18T10:21:52.979Z,13.1
2019-01-18T10:22:42.235Z,13.1
2019-01-18T10:23:32.863Z,13.1
2019-01-18T10:24:25.175Z,13.1
2019-01-18T10:25:13.760Z,13.1
2019-01-18T10:26:03.792Z,13.1
2019-01-18T10:26:53.809Z,13.1
2019-01-18T10:27:43.887Z,13.1
2019-01-18T10:28:33.710Z,13.1
2019-01-18T10:29:30.671Z,13.1
2019-01-18T10:30:14.390Z,13.1
2019-01-18T10:31:04.194Z,13.1
2019-01-18T10:32:00.335Z,13.1
2019-01-18T10:32:43.977Z,13.1
2019-01-18T10:33:34.304Z,13.1
2019-01-18T10:34:24.654Z,13.1
2019-01-18T10:35:14.689Z,13.1
2019-01-18T10:36:03.649Z,13.1
2019-01-18T10:36:55.900Z,13.1
2019-01-18T10:37:44.884Z,13.1
2019-01-18T10:38:34.644Z,13.1
2019-01-18T10:39:24.960Z,13.1
2019-01-18T10:40:15.019Z,13.1
2019-01-18T10:41:05.086Z,13.1
2019-01-18T10:41:54.364Z,13.1
2019-01-18T10:42:44.932Z,13.1
2019-01-18T10:43:34.976Z,13.1
2019-01-18T10:44:25.386Z,13.1
2019-01-18T10:45:14.826Z,13.1
2019-01-18T10:46:05.158Z,13.1
2019-01-18T10:46:54.668Z,13.1
2019-01-18T10:47:44.718Z,13.1
2019-01-18T10:48:35.388Z,13.1
2019-01-18T10:49:25.378Z,13.1
2019-01-18T10:50:15.217Z,13.1
2019-01-18T10:51:05.795Z,13.1
2019-01-18T10:51:55.571Z,13.1
2019-01-18T10:52:45.333Z,13.1
2019-01-18T10:53:35.715Z,13.1
2019-01-18T10:54:25.726Z,13.1
2019-01-18T10:55:16.081Z,13.1
2019-01-18T10:56:05.616Z,13.1
2019-01-18T10:56:55.608Z,13.1
2019-01-18T10:57:45.988Z,13.1
2019-01-18T10:58:36.330Z,13.1
2019-01-18T10:59:26.068Z,13.1
2019-01-18T11:00:16.140Z,13.1
2019-01-18T11:01:05.895Z,13.1
2019-01-18T11:02:09.702Z,13.1
2019-01-18T11:02:46.267Z,13.1
2019-01-18T11:03:36.318Z,13.1
2019-01-18T11:04:26.125Z,13.1
2019-01-18T11:05:16.774Z,13.1
2019-01-18T11:06:06.800Z,13.1
2019-01-18T11:06:56.290Z,13.1
2019-01-18T11:07:46.327Z,13.1
2019-01-18T11:08:36.105Z,13.1
2019-01-18T11:09:26.447Z,13.1
2019-01-18T11:10:16.772Z,13.1
2019-01-18T11:11:06.283Z,13.1
2019-01-18T11:11:56.617Z,13.1
2019-01-18T11:12:46.932Z,13.1
2019-01-18T11:13:36.734Z,13.1
2019-01-18T11:14:27.079Z,13.1
2019-01-18T11:15:17.119Z,13.1
2019-01-18T11:16:07.192Z,13.1
2019-01-18T11:16:57.312Z,13.1
2019-01-18T11:17:47.574Z,13.1
2019-01-18T11:18:37.622Z,13.1
2019-01-18T11:19:27.404Z,13.1
2019-01-18T11:20:17.196Z,13.1
2019-01-18T11:21:07.801Z,13.1
2019-01-18T11:21:57.284Z,13.1
2019-01-18T11:22:47.358Z,13.1
2019-01-18T11:23:37.971Z,13.1
2019-01-18T11:24:27.733Z,13.1
2019-01-18T11:25:18.880Z,13.1
2019-01-18T11:26:07.593Z,13.1
2019-01-18T11:26:57.363Z,13.1
2019-01-18T11:27:48.256Z,13.1
2019-01-18T11:28:37.825Z,13.1
2019-01-18T11:29:28.081Z,13.1
2019-01-18T11:30:18.161Z,13.1
2019-01-18T11:31:07.943Z,13.1
2019-01-18T11:31:58.527Z,13.1
2019-01-18T11:32:48.037Z,13.1
2019-01-18T11:33:38.121Z,13.1
2019-01-18T11:34:27.583Z,13.1
2019-01-18T11:35:18.798Z,13.1
2019-01-18T11:36:08.529Z,13.1
2019-01-18T11:37:01.567Z,13.1
2019-01-18T11:37:48.383Z,13.1
2019-01-18T11:38:38.710Z,13.1
2019-01-18T11:39:28.815Z,13.1
2019-01-18T11:40:18.547Z,13.1
2019-01-18T11:41:08.903Z,13.1
2019-01-18T11:41:58.663Z,13.1
2019-01-18T11:42:48.778Z,13.1
2019-01-18T11:43:38.780Z,13.1
2019-01-18T11:44:29.120Z,13.1
2019-01-18T11:45:19.484Z,13.1
2019-01-18T11:46:08.683Z,13.1
2019-01-18T11:46:59.005Z,13.1
2019-01-18T11:47:49.365Z,13.1
2019-01-18T11:48:39.690Z,13.1
2019-01-18T11:49:29.455Z,13.1
2019-01-18T11:50:19.800Z,13.1
2019-01-18T11:51:09.292Z,13.1
2019-01-18T11:51:59.920Z,13.1
2019-01-18T11:52:49.399Z,13.1
2019-01-18T11:53:40.880Z,13.1
2019-01-18T11:54:29.537Z,13.1
2019-01-18T11:55:20.125Z,13.1
2019-01-18T11:56:10.217Z,13.1
2019-01-18T11:57:00.000Z,13.1
2019-01-18T11:57:50.065Z,13.1
2019-01-18T11:58:40.092Z,13.1
2019-01-18T11:59:30.141Z,13.1
2019-01-18T12:00:20.204Z,13.1
2019-01-18T12:01:10.268Z,13.1
2019-01-18T12:02:00.304Z,13.1
2019-01-18T12:02:50.366Z,13.1
2019-01-18T12:03:40.691Z,13.1
2019-01-18T12:04:30.239Z,13.1
2019-01-18T12:05:20.585Z,13.1
2019-01-18T12:07:41.874Z,13.1
2019-01-18T12:08:32.763Z,13.1
2019-01-18T12:09:22.816Z,13
2019-01-18T12:10:12.873Z,13.1
2019-01-18T12:11:02.948Z,13.1
2019-01-18T12:11:52.973Z,13.1
2019-01-18T12:12:42.758Z,13.1
2019-01-18T12:13:32.548Z,13.1
2019-01-18T12:14:23.196Z,13
2019-01-18T12:15:12.938Z,13
2019-01-18T12:16:02.731Z,13.1
2019-01-18T12:16:53.058Z,13.1
2019-01-18T12:17:43.115Z,13
2019-01-18T12:18:33.170Z,13.1
2019-01-18T12:19:23.227Z,13.1
2019-01-18T12:20:13.279Z,13.1
2019-01-18T12:21:02.789Z,13
2019-01-18T12:21:52.838Z,13.1
2019-01-18T12:22:43.483Z,13
2019-01-18T12:23:33.497Z,13
2019-01-18T12:24:23.566Z,13
2019-01-18T12:25:13.901Z,13.1
2019-01-18T12:26:03.987Z,13
2019-01-18T12:26:53.727Z,13
2019-01-18T12:27:43.546Z,13
2019-01-18T12:28:33.572Z,13
2019-01-18T12:29:25.477Z,13
2019-01-18T12:30:14.235Z,13
2019-01-18T12:31:04.303Z,13
2019-01-18T12:31:54.091Z,13
2019-01-18T12:32:43.853Z,13
2019-01-18T12:33:33.901Z,13
2019-01-18T12:34:24.240Z,13
2019-01-18T12:35:13.475Z,13
2019-01-18T12:36:03.811Z,13
2019-01-18T12:37:02.031Z,13
2019-01-18T12:37:44.485Z,13
2019-01-18T12:38:33.783Z,13
2019-01-18T12:39:24.870Z,13
2019-01-18T12:40:14.645Z,13
2019-01-18T12:41:03.605Z,13
2019-01-18T12:41:54.493Z,13
2019-01-18T12:42:44.555Z,13
2019-01-18T12:43:34.605Z,13
2019-01-18T12:44:25.231Z,13
2019-01-18T12:45:14.445Z,13
2019-01-18T12:46:04.780Z,13
2019-01-18T12:46:54.850Z,13
2019-01-18T12:47:44.890Z,13
2019-01-18T12:48:34.670Z,13
2019-01-18T12:49:25.298Z,13.1
2019-01-18T12:50:15.607Z,13
2019-01-18T12:51:06.885Z,13
2019-01-18T12:51:55.177Z,13
2019-01-18T12:52:45.222Z,13
2019-01-18T12:53:35.282Z,13
2019-01-18T12:54:25.919Z,13
2019-01-18T12:55:15.975Z,13
2019-01-18T12:56:05.727Z,13
2019-01-18T12:56:55.777Z,13
2019-01-18T12:57:45.023Z,13
2019-01-18T12:58:35.914Z,13
2019-01-18T12:59:26.257Z,13
2019-01-18T13:00:16.069Z,13
2019-01-18T13:01:05.794Z,13
2019-01-18T13:01:55.865Z,13
2019-01-18T13:02:46.190Z,13
2019-01-18T13:03:36.250Z,13
2019-01-18T13:04:26.091Z,13
2019-01-18T13:05:15.861Z,13
2019-01-18T13:06:06.142Z,13
2019-01-18T13:06:56.259Z,13
2019-01-18T13:07:46.011Z,13
2019-01-18T13:08:37.641Z,13
2019-01-18T13:09:26.667Z,13
2019-01-18T13:10:16.518Z,13
2019-01-18T13:11:06.231Z,13
2019-01-18T13:11:57.126Z,13
2019-01-18T13:12:46.954Z,13
2019-01-18T13:13:36.402Z,13
2019-01-18T13:14:26.748Z,13
2019-01-18T13:15:16.806Z,13
2019-01-18T13:16:07.198Z,13
2019-01-18T13:16:57.475Z,13
2019-01-18T13:17:47.500Z,13
2019-01-18T13:18:37.025Z,13
2019-01-18T13:19:27.408Z,13
2019-01-18T13:20:17.138Z,13
2019-01-18T13:21:06.933Z,13
2019-01-18T13:21:56.953Z,13
2019-01-18T13:22:47.610Z,13
2019-01-18T13:23:37.362Z,13
2019-01-18T13:24:27.443Z,13
2019-01-18T13:25:17.222Z,13
2019-01-18T13:26:08.154Z,13
2019-01-18T13:26:57.599Z,13
2019-01-18T13:27:48.199Z,13
2019-01-18T13:28:37.698Z,13
2019-01-18T13:29:27.792Z,13
2019-01-18T13:30:18.392Z,13
2019-01-18T13:31:07.867Z,13
2019-01-18T13:31:58.498Z,13
2019-01-18T13:32:48.284Z,13
2019-01-18T13:33:38.319Z,13
2019-01-18T13:34:28.139Z,13
2019-01-18T13:35:17.767Z,13
2019-01-18T13:36:08.492Z,13
2019-01-18T13:36:58.304Z,13
2019-01-18T13:37:48.899Z,13
2019-01-18T13:38:38.394Z,13
2019-01-18T13:39:28.202Z,13
2019-01-18T13:40:18.817Z,13
2019-01-18T13:41:08.844Z,13
2019-01-18T13:41:59.868Z,13
2019-01-18T13:42:48.980Z,13
2019-01-18T13:43:39.069Z,13
2019-01-18T13:44:29.364Z,13
2019-01-18T13:45:18.597Z,13